createdAt,value
2022-12-23T00:00:23.157Z,94.27
2022-12-23T00:01:23.123Z,94.46
2022-12-23T00:02:23.159Z,93.88
2022-12-23T00:03:23.174Z,94.46
2022-12-23T00:04:23.160Z,93.79
2022-12-23T00:05:22.981Z,94.56
2022-12-23T00:06:22.944Z,93.88
2022-12-23T00:07:22.905Z,94.46
2022-12-23T00:08:22.860Z,94.27
2022-12-23T00:09:22.834Z,94.08
2022-12-23T00:10:22.793Z,94.46
2022-12-23T00:11:22.764Z,94.37
2022-12-23T00:12:22.720Z,93.88
2022-12-23T00:13:22.688Z,93.60
2022-12-23T00:14:22.650Z,93.70
2022-12-23T00:15:22.620Z,93.70
2022-12-23T00:16:22.615Z,93.60
2022-12-23T00:17:23.325Z,93.70
2022-12-23T00:18:22.508Z,93.70
2022-12-23T00:19:22.474Z,93.88
2022-12-23T00:20:22.437Z,93.70
2022-12-23T00:21:22.403Z,93.41
2022-12-23T00:22:22.366Z,93.51
2022-12-23T00:23:22.341Z,93.51
2022-12-23T00:24:22.291Z,93.79
2022-12-23T00:25:22.252Z,93.60
2022-12-23T00:26:22.243Z,93.88
2022-12-23T00:27:22.193Z,93.88
2022-12-23T00:28:22.153Z,94.08
2022-12-23T00:29:22.118Z,93.70
2022-12-23T00:30:22.080Z,94.08
2022-12-23T00:31:22.077Z,93.79
2022-12-23T00:32:21.998Z,94.27
2022-12-23T00:33:21.970Z,94.27
2022-12-23T00:34:21.940Z,93.88
2022-12-23T00:35:21.898Z,94.27
2022-12-23T00:36:21.919Z,94.08
2022-12-23T00:37:21.824Z,93.88
2022-12-23T00:38:21.804Z,93.79
2022-12-23T00:39:21.752Z,93.70
2022-12-23T00:40:21.720Z,93.79
2022-12-23T00:41:21.701Z,93.51
2022-12-23T00:42:21.653Z,94.08
2022-12-23T00:43:21.611Z,93.88
2022-12-23T00:44:21.581Z,93.88
2022-12-23T00:45:21.547Z,94.27
2022-12-23T00:46:21.585Z,94.74
2022-12-23T00:47:21.468Z,93.98
2022-12-23T00:48:21.438Z,93.79
2022-12-23T00:49:21.396Z,93.79
2022-12-23T00:50:21.362Z,93.88
2022-12-23T00:51:21.329Z,93.70
2022-12-23T00:52:21.301Z,93.98
2022-12-23T00:53:21.252Z,93.70
2022-12-23T00:54:21.246Z,93.79
2022-12-23T00:55:21.191Z,93.70
2022-12-23T00:56:21.157Z,93.22
2022-12-23T00:57:21.113Z,93.41
2022-12-23T00:58:21.074Z,93.51
2022-12-23T00:59:21.039Z,93.32
2022-12-23T01:00:21.001Z,93.03
2022-12-23T01:01:21.178Z,93.12
2022-12-23T01:02:21.067Z,93.12
2022-12-23T01:03:20.981Z,92.93
2022-12-23T01:04:20.858Z,92.74
2022-12-23T01:05:20.859Z,92.93
2022-12-23T01:06:20.787Z,93.03
2022-12-23T01:07:20.745Z,92.46
2022-12-23T01:08:20.716Z,92.84
2022-12-23T01:09:20.683Z,92.74
2022-12-23T01:10:20.644Z,92.36
2022-12-23T01:11:20.610Z,92.74
2022-12-23T01:12:20.580Z,92.65
2022-12-23T01:13:20.534Z,92.36
2022-12-23T01:14:20.496Z,92.84
2022-12-23T01:15:20.458Z,92.74
2022-12-23T01:16:20.498Z,92.55
2022-12-23T01:17:20.480Z,91.98
2022-12-23T01:18:20.377Z,91.79
2022-12-23T01:19:20.330Z,92.08
2022-12-23T01:20:20.289Z,91.88
2022-12-23T01:21:20.243Z,92.17
2022-12-23T01:22:20.207Z,91.88
2022-12-23T01:23:20.173Z,92.08
2022-12-23T01:24:20.138Z,91.31
2022-12-23T01:25:20.105Z,91.41
2022-12-23T01:26:20.074Z,91.22
2022-12-23T01:27:20.037Z,92.27
2022-12-23T01:28:19.992Z,91.69
2022-12-23T01:29:19.955Z,91.41
2022-12-23T01:30:19.933Z,91.50
2022-12-23T01:31:19.923Z,91.69
2022-12-23T01:32:19.944Z,91.50
2022-12-23T01:33:19.821Z,91.31
2022-12-23T01:34:19.788Z,91.50
2022-12-23T01:35:19.736Z,91.41
2022-12-23T01:36:19.701Z,91.13
2022-12-23T01:37:19.668Z,91.03
2022-12-23T01:38:19.629Z,90.84
2022-12-23T01:39:19.599Z,90.70
2022-12-23T01:40:19.564Z,90.08
2022-12-23T01:41:19.541Z,90.26
2022-12-23T01:42:19.497Z,89.36
2022-12-23T01:43:19.456Z,88.55
2022-12-23T01:44:19.415Z,88.17
2022-12-23T01:45:19.379Z,87.88
2022-12-23T01:46:19.464Z,87.12
2022-12-23T01:47:19.306Z,87.12
2022-12-23T01:48:19.270Z,86.22
2022-12-23T01:49:19.247Z,85.12
2022-12-23T01:50:19.198Z,84.41
2022-12-23T01:51:19.159Z,84.31
2022-12-23T01:52:19.127Z,83.31
2022-12-23T01:53:19.083Z,82.79
2022-12-23T01:54:19.058Z,82.26
2022-12-23T01:55:19.024Z,82.17
2022-12-23T01:56:18.984Z,82.17
2022-12-23T01:57:18.989Z,82.26
2022-12-23T01:58:18.909Z,82.54
2022-12-23T01:59:18.870Z,81.55
2022-12-23T02:00:18.853Z,81.55
2022-12-23T02:01:18.826Z,81.93
2022-12-23T02:02:19.069Z,81.40
2022-12-23T02:03:18.748Z,81.30
2022-12-23T02:04:18.685Z,81.30
2022-12-23T02:05:18.656Z,81.78
2022-12-23T02:06:18.610Z,81.88
2022-12-23T02:07:18.576Z,81.78
2022-12-23T02:08:18.541Z,81.78
2022-12-23T02:09:18.515Z,82.35
2022-12-23T02:10:18.473Z,82.35
2022-12-23T02:11:18.435Z,82.45
2022-12-23T02:12:18.411Z,82.17
2022-12-23T02:13:18.355Z,82.17
2022-12-23T02:14:18.324Z,82.17
2022-12-23T02:15:18.290Z,82.54
2022-12-23T02:16:18.364Z,82.26
2022-12-23T02:17:18.306Z,82.35
2022-12-23T02:18:18.180Z,82.07
2022-12-23T02:19:18.138Z,82.17
2022-12-23T02:20:18.107Z,82.35
2022-12-23T02:21:18.067Z,82.64
2022-12-23T02:22:18.036Z,82.35
2022-12-23T02:23:18.001Z,82.35
2022-12-23T02:24:17.958Z,82.83
2022-12-23T02:25:17.935Z,82.17
2022-12-23T02:26:17.886Z,82.17
2022-12-23T02:27:17.859Z,83.21
2022-12-23T02:28:17.817Z,83.12
2022-12-23T02:29:17.778Z,83.31
2022-12-23T02:30:17.751Z,83.21
2022-12-23T02:31:17.748Z,83.97
2022-12-23T02:32:17.675Z,83.97
2022-12-23T02:33:17.654Z,84.16
2022-12-23T02:34:17.602Z,84.16
2022-12-23T02:35:17.579Z,85.02
2022-12-23T02:36:17.521Z,85.21
2022-12-23T02:37:17.490Z,85.12
2022-12-23T02:38:17.451Z,85.69
2022-12-23T02:39:17.416Z,86.45
2022-12-23T02:40:17.385Z,86.74
2022-12-23T02:41:17.344Z,87.02
2022-12-23T02:42:17.304Z,86.83
2022-12-23T02:43:17.270Z,86.93
2022-12-23T02:44:17.243Z,86.93
2022-12-23T02:45:17.210Z,87.21
2022-12-23T02:46:17.226Z,87.50
2022-12-23T02:47:17.136Z,87.50
2022-12-23T02:48:17.114Z,88.07
2022-12-23T02:49:17.055Z,87.98
2022-12-23T02:50:17.028Z,88.55
2022-12-23T02:51:16.982Z,88.93
2022-12-23T02:52:16.953Z,88.74
2022-12-23T02:53:16.983Z,88.55
2022-12-23T02:54:16.890Z,89.22
2022-12-23T02:55:16.837Z,89.12
2022-12-23T02:56:16.811Z,89.50
2022-12-23T02:57:16.772Z,89.50
2022-12-23T02:58:16.742Z,89.50
2022-12-23T02:59:16.706Z,90.36
2022-12-23T03:00:16.657Z,90.36
2022-12-23T03:01:16.670Z,90.74
2022-12-23T03:02:16.804Z,91.31
2022-12-23T03:03:16.725Z,91.60
2022-12-23T03:04:16.518Z,91.41
2022-12-23T03:05:16.485Z,91.79
2022-12-23T03:06:16.443Z,92.08
2022-12-23T03:07:18.656Z,93.03
2022-12-23T03:08:16.361Z,92.65
2022-12-23T03:09:16.332Z,93.41
2022-12-23T03:10:16.308Z,93.70
2022-12-23T03:11:16.259Z,93.79
2022-12-23T03:12:16.236Z,93.41
2022-12-23T03:13:16.192Z,93.79
2022-12-23T03:14:16.162Z,93.98
2022-12-23T03:15:16.122Z,94.08
2022-12-23T03:16:16.160Z,93.60
2022-12-23T03:17:16.043Z,93.70
2022-12-23T03:18:16.014Z,94.37
2022-12-23T03:19:15.964Z,94.46
2022-12-23T03:20:15.936Z,94.93
2022-12-23T03:21:15.935Z,94.84
2022-12-23T03:22:15.866Z,94.84
2022-12-23T03:23:15.827Z,94.46
2022-12-23T03:24:15.803Z,95.03
2022-12-23T03:25:15.755Z,94.74
2022-12-23T03:26:15.751Z,94.56
2022-12-23T03:27:15.685Z,95.32
2022-12-23T03:28:15.641Z,95.32
2022-12-23T03:29:15.611Z,95.32
2022-12-23T03:30:15.572Z,95.41
2022-12-23T03:31:15.599Z,95.22
2022-12-23T03:32:15.551Z,95.22
2022-12-23T03:33:15.471Z,95.61
2022-12-23T03:34:15.425Z,95.51
2022-12-23T03:35:15.392Z,95.51
2022-12-23T03:36:15.362Z,95.51
2022-12-23T03:37:15.319Z,95.32
2022-12-23T03:38:15.279Z,95.79
2022-12-23T03:39:15.247Z,95.22
2022-12-23T03:40:15.231Z,95.70
2022-12-23T03:41:15.178Z,95.61
2022-12-23T03:42:15.137Z,95.51
2022-12-23T03:43:15.105Z,95.51
2022-12-23T03:44:15.072Z,95.56
2022-12-23T03:45:41.716Z,95.22
2022-12-23T03:46:15.065Z,95.61
2022-12-23T03:47:14.957Z,95.51
2022-12-23T03:48:14.947Z,95.61
2022-12-23T03:49:14.893Z,94.93
2022-12-23T03:50:14.854Z,95.70
2022-12-23T03:51:14.835Z,95.03
2022-12-23T03:52:21.039Z,95.41
2022-12-23T03:53:14.746Z,95.32
2022-12-23T03:54:14.700Z,95.32
2022-12-23T03:55:14.671Z,95.22
2022-12-23T03:56:14.630Z,95.22
2022-12-23T03:57:14.610Z,94.93
2022-12-23T03:58:14.579Z,94.84
2022-12-23T03:59:14.553Z,94.65
2022-12-23T04:00:14.485Z,94.37
2022-12-23T04:01:14.603Z,93.41
2022-12-23T04:02:14.511Z,93.79
2022-12-23T04:03:14.373Z,93.88
2022-12-23T04:04:14.402Z,93.51
2022-12-23T04:05:14.307Z,93.03
2022-12-23T04:06:14.274Z,93.12
2022-12-23T04:07:14.237Z,92.65
2022-12-23T04:08:14.215Z,92.46
2022-12-23T04:09:19.825Z,92.65
2022-12-23T04:10:14.128Z,92.74
2022-12-23T04:11:14.097Z,91.60
2022-12-23T04:12:14.056Z,91.88
2022-12-23T04:13:14.050Z,91.98
2022-12-23T04:14:13.978Z,91.79
2022-12-23T04:15:13.947Z,92.17
2022-12-23T04:16:13.973Z,92.36
2022-12-23T04:17:13.879Z,92.46
2022-12-23T04:18:13.836Z,92.08
2022-12-23T04:19:13.799Z,91.65
2022-12-23T04:20:13.777Z,91.74
2022-12-23T04:21:13.739Z,91.74
2022-12-23T04:22:13.690Z,91.65
2022-12-23T04:23:13.664Z,91.74
2022-12-23T04:24:13.616Z,91.94
2022-12-23T04:25:13.583Z,91.46
2022-12-23T04:26:13.546Z,91.36
2022-12-23T04:27:13.525Z,92.03
2022-12-23T04:28:13.475Z,91.36
2022-12-23T04:29:13.531Z,91.84
2022-12-23T04:30:13.452Z,91.17
2022-12-23T04:31:13.412Z,91.74
2022-12-23T04:32:13.359Z,92.13
2022-12-23T04:33:13.297Z,91.36
2022-12-23T04:34:13.255Z,91.94
2022-12-23T04:35:13.215Z,91.84
2022-12-23T04:36:13.187Z,91.74
2022-12-23T04:37:13.144Z,91.46
2022-12-23T04:38:13.110Z,91.94
2022-12-23T04:39:13.080Z,91.27
2022-12-23T04:40:13.036Z,91.74
2022-12-23T04:41:13.004Z,91.46
2022-12-23T04:42:12.964Z,91.74
2022-12-23T04:43:12.925Z,91.84
2022-12-23T04:44:12.888Z,91.17
2022-12-23T04:45:12.854Z,91.74
2022-12-23T04:46:12.871Z,91.65
2022-12-23T04:47:12.794Z,91.74
2022-12-23T04:48:12.765Z,91.65
2022-12-23T04:49:12.708Z,91.84
2022-12-23T04:50:12.674Z,91.36
2022-12-23T04:51:12.638Z,91.36
2022-12-23T04:52:12.598Z,91.74
2022-12-23T04:53:12.567Z,91.27
2022-12-23T04:54:12.530Z,91.36
2022-12-23T04:55:12.490Z,91.74
2022-12-23T04:56:12.451Z,92.13
2022-12-23T04:57:12.422Z,91.84
2022-12-23T04:58:12.384Z,92.03
2022-12-23T04:59:12.342Z,91.94
2022-12-23T05:00:12.312Z,91.27
2022-12-23T05:01:12.318Z,91.46
2022-12-23T05:02:12.538Z,91.84
2022-12-23T05:03:12.403Z,91.27
2022-12-23T05:04:12.184Z,91.36
2022-12-23T05:05:12.125Z,91.27
2022-12-23T05:06:12.094Z,91.36
2022-12-23T05:07:12.054Z,91.36
2022-12-23T05:08:12.017Z,91.55
2022-12-23T05:09:11.985Z,91.65
2022-12-23T05:10:11.950Z,91.94
2022-12-23T05:11:11.911Z,91.65
2022-12-23T05:12:11.873Z,92.13
2022-12-23T05:13:11.837Z,91.84
2022-12-23T05:14:11.802Z,91.74
2022-12-23T05:15:11.763Z,91.65
2022-12-23T05:16:11.805Z,92.13
2022-12-23T05:17:11.689Z,91.65
2022-12-23T05:18:11.670Z,91.74
2022-12-23T05:19:11.621Z,91.88
2022-12-23T05:20:11.588Z,91.98
2022-12-23T05:21:11.544Z,92.32
2022-12-23T05:22:11.513Z,91.94
2022-12-23T05:23:11.476Z,92.74
2022-12-23T05:24:11.436Z,92.65
2022-12-23T05:25:11.394Z,92.60
2022-12-23T05:26:11.363Z,92.69
2022-12-23T05:27:11.322Z,92.79
2022-12-23T05:28:11.287Z,93.12
2022-12-23T05:29:11.250Z,93.32
2022-12-23T05:30:11.214Z,93.37
2022-12-23T05:31:11.252Z,93.46
2022-12-23T05:32:11.203Z,94.27
2022-12-23T05:33:11.217Z,93.51
2022-12-23T05:34:11.214Z,93.98
2022-12-23T05:35:11.039Z,93.79
2022-12-23T05:36:11.003Z,93.60
2022-12-23T05:37:10.960Z,93.60
2022-12-23T05:38:10.932Z,93.79
2022-12-23T05:39:10.888Z,93.60
2022-12-23T05:40:10.852Z,93.88
2022-12-23T05:41:10.814Z,93.70
2022-12-23T05:42:10.784Z,93.79
2022-12-23T05:43:10.752Z,94.08
2022-12-23T05:44:10.716Z,93.88
2022-12-23T05:45:10.680Z,94.46
2022-12-23T05:46:10.724Z,93.70
2022-12-23T05:47:10.611Z,94.27
2022-12-23T05:48:10.578Z,93.70
2022-12-23T05:49:10.554Z,94.65
2022-12-23T05:50:10.488Z,94.37
2022-12-23T05:51:10.464Z,94.46
2022-12-23T05:52:10.415Z,94.46
2022-12-23T05:53:10.380Z,94.27
2022-12-23T05:54:10.374Z,94.27
2022-12-23T05:55:10.312Z,94.27
2022-12-23T05:56:10.273Z,94.56
2022-12-23T05:57:10.237Z,94.56
2022-12-23T05:58:10.205Z,94.46
2022-12-23T05:59:10.171Z,94.27
2022-12-23T06:00:10.131Z,94.27
2022-12-23T06:01:10.088Z,94.27
2022-12-23T06:02:10.205Z,94.65
2022-12-23T06:03:10.179Z,94.27
2022-12-23T06:04:10.141Z,94.74
2022-12-23T06:05:09.949Z,94.27
2022-12-23T06:06:09.922Z,94.46
2022-12-23T06:07:09.879Z,94.27
2022-12-23T06:08:09.841Z,94.37
2022-12-23T06:09:10.869Z,94.65
2022-12-23T06:10:09.769Z,94.65
2022-12-23T06:11:09.745Z,94.27
2022-12-23T06:12:09.693Z,94.93
2022-12-23T06:13:09.660Z,94.65
2022-12-23T06:14:09.626Z,94.56
2022-12-23T06:15:09.612Z,94.74
2022-12-23T06:16:09.612Z,94.46
2022-12-23T06:17:09.513Z,94.84
2022-12-23T06:18:09.482Z,94.65
2022-12-23T06:19:09.440Z,94.84
2022-12-23T06:20:13.368Z,94.27
2022-12-23T06:21:09.383Z,94.93
2022-12-23T06:22:09.337Z,94.65
2022-12-23T06:23:09.307Z,94.27
2022-12-23T06:24:09.263Z,94.08
2022-12-23T06:25:09.237Z,94.56
2022-12-23T06:26:09.187Z,94.46
2022-12-23T06:27:09.166Z,94.74
2022-12-23T06:28:09.124Z,93.51
2022-12-23T06:29:09.084Z,93.79
2022-12-23T06:30:09.052Z,93.70
2022-12-23T06:31:09.022Z,93.79
2022-12-23T06:32:09.080Z,93.88
2022-12-23T06:33:08.937Z,93.60
2022-12-23T06:34:08.921Z,93.41
2022-12-23T06:35:08.885Z,92.84
2022-12-23T06:36:08.835Z,92.55
2022-12-23T06:37:08.804Z,92.46
2022-12-23T06:38:12.077Z,92.27
2022-12-23T06:39:08.721Z,91.98
2022-12-23T06:40:08.697Z,91.41
2022-12-23T06:41:08.660Z,90.45
2022-12-23T06:42:08.619Z,90.17
2022-12-23T06:43:08.576Z,89.60
2022-12-23T06:44:08.546Z,89.40
2022-12-23T06:45:08.505Z,88.74
2022-12-23T06:46:08.530Z,88.64
2022-12-23T06:47:08.435Z,88.36
2022-12-23T06:48:08.409Z,87.79
2022-12-23T06:49:13.160Z,87.88
2022-12-23T06:50:08.329Z,87.50
2022-12-23T06:51:08.289Z,87.50
2022-12-23T06:52:08.251Z,87.50
2022-12-23T06:53:08.255Z,87.12
2022-12-23T06:54:08.201Z,87.12
2022-12-23T06:55:08.153Z,87.21
2022-12-23T06:56:08.137Z,87.02
2022-12-23T06:57:08.080Z,87.02
2022-12-23T06:58:08.037Z,87.21
2022-12-23T06:59:07.998Z,87.02
2022-12-23T07:00:07.964Z,87.21
2022-12-23T07:01:10.031Z,87.60
2022-12-23T07:02:08.245Z,87.88
2022-12-23T07:03:07.965Z,87.88
2022-12-23T07:04:07.824Z,87.60
2022-12-23T07:05:07.778Z,87.40
2022-12-23T07:06:07.763Z,87.60
2022-12-23T07:07:07.710Z,88.07
2022-12-23T07:08:07.682Z,87.79
2022-12-23T07:09:07.639Z,88.26
2022-12-23T07:10:07.599Z,87.69
2022-12-23T07:11:07.567Z,87.98
2022-12-23T07:12:07.530Z,88.26
2022-12-23T07:13:07.513Z,87.98
2022-12-23T07:14:07.460Z,88.26
2022-12-23T07:15:07.416Z,88.55
2022-12-23T07:16:07.423Z,88.45
2022-12-23T07:17:07.488Z,88.45
2022-12-23T07:18:07.314Z,88.64
2022-12-23T07:19:07.279Z,88.84
2022-12-23T07:20:07.249Z,88.84
2022-12-23T07:21:15.551Z,88.84
2022-12-23T07:22:07.184Z,88.64
2022-12-23T07:23:07.142Z,88.64
2022-12-23T07:24:07.122Z,88.64
2022-12-23T07:25:07.076Z,88.84
2022-12-23T07:26:07.034Z,88.84
2022-12-23T07:27:06.997Z,88.74
2022-12-23T07:28:06.956Z,88.55
2022-12-23T07:29:06.922Z,88.84
2022-12-23T07:30:06.888Z,88.93
2022-12-23T07:31:06.858Z,88.26
2022-12-23T07:32:06.896Z,88.45
2022-12-23T07:33:06.776Z,88.45
2022-12-23T07:34:06.748Z,88.64
2022-12-23T07:35:06.698Z,88.07
2022-12-23T07:36:06.673Z,87.88
2022-12-23T07:37:06.629Z,88.45
2022-12-23T07:38:06.595Z,88.45
2022-12-23T07:39:06.559Z,88.45
2022-12-23T07:40:08.847Z,88.45
2022-12-23T07:41:06.509Z,88.17
2022-12-23T07:42:42.720Z,87.60
2022-12-23T07:43:06.416Z,87.69
2022-12-23T07:44:06.389Z,87.12
2022-12-23T07:45:06.344Z,87.21
2022-12-23T07:46:06.338Z,87.12
2022-12-23T07:47:06.277Z,87.31
2022-12-23T07:48:06.233Z,87.12
2022-12-23T07:49:06.196Z,87.12
2022-12-23T07:50:06.166Z,87.02
2022-12-23T07:51:06.152Z,87.31
2022-12-23T07:52:06.087Z,87.50
2022-12-23T07:53:06.054Z,87.21
2022-12-23T07:54:06.016Z,87.12
2022-12-23T07:55:05.982Z,86.93
2022-12-23T07:56:05.959Z,87.02
2022-12-23T07:57:05.911Z,87.31
2022-12-23T07:58:05.892Z,87.31
2022-12-23T07:59:05.833Z,87.31
2022-12-23T08:00:05.818Z,87.12
2022-12-23T08:01:05.803Z,86.83
2022-12-23T08:02:05.927Z,86.55
2022-12-23T08:03:05.802Z,87.12
2022-12-23T08:04:05.677Z,86.93
2022-12-23T08:05:05.707Z,86.74
2022-12-23T08:06:05.586Z,86.83
2022-12-23T08:07:05.557Z,86.74
2022-12-23T08:08:05.513Z,86.65
2022-12-23T08:09:05.474Z,86.74
2022-12-23T08:10:05.436Z,86.55
2022-12-23T08:11:05.423Z,87.12
2022-12-23T08:12:05.377Z,87.50
2022-12-23T08:13:05.337Z,87.21
2022-12-23T08:14:05.297Z,87.50
2022-12-23T08:15:05.277Z,87.07
2022-12-23T08:16:05.296Z,87.12
2022-12-23T08:17:05.368Z,87.16
2022-12-23T08:18:05.154Z,87.93
2022-12-23T08:19:05.116Z,87.12
2022-12-23T08:20:05.090Z,87.64
2022-12-23T08:21:05.047Z,87.64
2022-12-23T08:22:05.010Z,87.31
2022-12-23T08:23:04.975Z,88.02
2022-12-23T08:24:04.935Z,87.93
2022-12-23T08:25:04.907Z,88.50
2022-12-23T08:26:04.923Z,88.21
2022-12-23T08:27:04.881Z,88.59
2022-12-23T08:28:04.795Z,88.88
2022-12-23T08:29:04.783Z,88.78
2022-12-23T08:30:04.735Z,88.59
2022-12-23T08:31:04.756Z,88.31
2022-12-23T08:32:04.656Z,88.98
2022-12-23T08:33:04.623Z,88.98
2022-12-23T08:34:04.593Z,89.17
2022-12-23T08:35:04.547Z,89.07
2022-12-23T08:36:04.511Z,88.59
2022-12-23T08:37:04.472Z,89.26
2022-12-23T08:38:04.436Z,89.36
2022-12-23T08:39:04.400Z,89.74
2022-12-23T08:40:04.372Z,89.54
2022-12-23T08:41:04.337Z,89.03
2022-12-23T08:42:04.293Z,88.78
2022-12-23T08:43:04.264Z,88.36
2022-12-23T08:44:04.231Z,88.45
2022-12-23T08:45:04.196Z,88.74
2022-12-23T08:46:04.227Z,88.84
2022-12-23T08:47:04.117Z,88.64
2022-12-23T08:48:04.088Z,88.45
2022-12-23T08:49:04.048Z,88.26
2022-12-23T08:50:04.025Z,87.98
2022-12-23T08:51:03.974Z,88.17
2022-12-23T08:52:03.937Z,88.17
2022-12-23T08:53:03.902Z,88.26
2022-12-23T08:54:03.877Z,88.07
2022-12-23T08:55:03.825Z,87.98
2022-12-23T08:56:03.796Z,87.98
2022-12-23T08:57:03.762Z,87.98
2022-12-23T08:58:03.727Z,87.88
2022-12-23T08:59:03.686Z,88.36
2022-12-23T09:00:03.663Z,87.98
2022-12-23T09:01:03.700Z,87.60
2022-12-23T09:02:03.788Z,87.88
2022-12-23T09:03:03.666Z,87.98
2022-12-23T09:04:03.572Z,87.60
2022-12-23T09:05:03.469Z,88.45
2022-12-23T09:06:03.437Z,88.07
2022-12-23T09:07:03.406Z,87.98
2022-12-23T09:08:03.377Z,88.17
2022-12-23T09:09:03.320Z,88.17
2022-12-23T09:10:03.295Z,88.17
2022-12-23T09:11:03.279Z,88.45
2022-12-23T09:12:03.223Z,87.93
2022-12-23T09:13:03.195Z,87.88
2022-12-23T09:14:03.145Z,87.74
2022-12-23T09:15:03.120Z,87.69
2022-12-23T09:16:03.148Z,88.64
2022-12-23T09:17:03.063Z,88.64
2022-12-23T09:18:03.000Z,88.55
2022-12-23T09:19:02.961Z,88.55
2022-12-23T09:20:02.930Z,88.45
2022-12-23T09:21:02.901Z,88.69
2022-12-23T09:22:02.861Z,88.50
2022-12-23T09:23:02.834Z,88.59
2022-12-23T09:24:02.783Z,88.88
2022-12-23T09:25:05.301Z,88.50
2022-12-23T09:26:02.717Z,88.88
2022-12-23T09:27:02.683Z,88.88
2022-12-23T09:28:02.643Z,88.88
2022-12-23T09:29:02.608Z,89.45
2022-12-23T09:30:02.579Z,89.17
2022-12-23T09:31:02.644Z,89.07
2022-12-23T09:32:02.507Z,89.64
2022-12-23T09:33:02.468Z,89.74
2022-12-23T09:34:02.450Z,89.36
2022-12-23T09:35:02.394Z,89.83
2022-12-23T09:36:02.365Z,89.83
2022-12-23T09:37:02.325Z,89.93
2022-12-23T09:38:02.291Z,89.83
2022-12-23T09:39:02.257Z,90.31
2022-12-23T09:40:02.252Z,90.41
2022-12-23T09:41:02.190Z,89.93
2022-12-23T09:42:02.156Z,90.31
2022-12-23T09:43:02.139Z,90.31
2022-12-23T09:44:02.074Z,90.22
2022-12-23T09:45:02.067Z,90.50
2022-12-23T09:46:02.058Z,90.69
2022-12-23T09:47:02.198Z,90.50
2022-12-23T09:48:01.940Z,90.59
2022-12-23T09:49:01.913Z,90.98
2022-12-23T09:50:01.858Z,91.07
2022-12-23T09:51:01.830Z,91.36
2022-12-23T09:52:01.797Z,91.36
2022-12-23T09:53:01.765Z,91.36
2022-12-23T09:54:01.724Z,91.46
2022-12-23T09:55:01.700Z,91.27
2022-12-23T09:56:01.645Z,91.46
2022-12-23T09:57:01.609Z,91.36
2022-12-23T09:58:01.577Z,91.17
2022-12-23T09:59:01.547Z,91.46
2022-12-23T10:00:01.502Z,91.27
2022-12-23T10:01:01.477Z,91.83
2022-12-23T10:02:01.547Z,91.83
2022-12-23T10:03:01.698Z,92.03
2022-12-23T10:04:01.450Z,91.93
2022-12-23T10:05:01.331Z,92.03
2022-12-23T10:06:01.321Z,92.22
2022-12-23T10:07:03.124Z,91.93
2022-12-23T10:08:01.224Z,91.83
2022-12-23T10:09:01.188Z,92.22
2022-12-23T10:10:01.151Z,92.88
2022-12-23T10:11:01.125Z,92.69
2022-12-23T10:12:01.086Z,92.88
2022-12-23T10:13:01.042Z,92.88
2022-12-23T10:14:01.006Z,92.79
2022-12-23T10:15:00.978Z,93.17
2022-12-23T10:16:00.974Z,93.08
2022-12-23T10:17:00.903Z,93.65
2022-12-23T10:18:00.895Z,93.74
2022-12-23T10:19:00.837Z,93.84
2022-12-23T10:20:00.807Z,93.74
2022-12-23T10:21:00.759Z,93.93
2022-12-23T10:22:00.735Z,93.65
2022-12-23T10:23:00.697Z,94.51
2022-12-23T10:24:00.651Z,94.70
2022-12-23T10:25:00.639Z,94.70
2022-12-23T10:26:00.585Z,94.41
2022-12-23T10:27:00.566Z,94.79
2022-12-23T10:28:00.522Z,94.70
2022-12-23T10:29:00.482Z,94.60
2022-12-23T10:30:09.635Z,95.08
2022-12-23T10:32:00.511Z,95.17
2022-12-23T10:33:00.340Z,95.37
2022-12-23T10:34:00.298Z,95.08
2022-12-23T10:35:00.269Z,95.17
2022-12-23T10:36:00.268Z,95.17
2022-12-23T10:37:00.374Z,96.03
2022-12-23T10:38:00.170Z,95.27
2022-12-23T10:39:00.123Z,95.51
2022-12-23T10:40:00.113Z,96.41
2022-12-23T10:41:06.955Z,96.41
2022-12-23T10:42:00.020Z,96.03
2022-12-23T10:42:59.987Z,96.22
2022-12-23T10:43:59.945Z,95.98
2022-12-23T10:44:59.912Z,95.94
2022-12-23T10:45:59.877Z,96.46
2022-12-23T10:46:59.916Z,96.27
2022-12-23T10:47:59.802Z,96.13
2022-12-23T10:48:59.768Z,95.98
2022-12-23T10:49:59.731Z,96.17
2022-12-23T10:50:59.720Z,96.37
2022-12-23T10:51:59.689Z,96.98
2022-12-23T10:52:59.638Z,96.98
2022-12-23T10:53:59.594Z,97.08
2022-12-23T10:54:59.563Z,97.17
2022-12-23T10:55:59.521Z,96.98
2022-12-23T10:56:59.485Z,96.80
2022-12-23T10:57:59.451Z,97.17
2022-12-23T10:58:59.424Z,97.42
2022-12-23T10:59:59.393Z,97.08
2022-12-23T11:00:59.420Z,96.98
2022-12-23T11:01:59.641Z,97.75
2022-12-23T11:02:59.392Z,97.17
2022-12-23T11:03:59.235Z,97.51
2022-12-23T11:04:59.214Z,96.98
2022-12-23T11:05:59.171Z,97.75
2022-12-23T11:07:26.300Z,97.37
2022-12-23T11:07:59.096Z,97.37
2022-12-23T11:08:59.063Z,97.27
2022-12-23T11:09:59.023Z,97.17
2022-12-23T11:10:58.992Z,97.08
2022-12-23T11:11:58.950Z,96.98
2022-12-23T11:12:58.921Z,96.98
2022-12-23T11:13:58.901Z,97.27
2022-12-23T11:14:58.849Z,96.80
2022-12-23T11:15:58.887Z,96.98
2022-12-23T11:16:58.777Z,97.17
2022-12-23T11:17:58.744Z,96.03
2022-12-23T11:18:58.706Z,96.41
2022-12-23T11:19:58.673Z,95.94
2022-12-23T11:20:58.647Z,96.03
2022-12-23T11:21:58.597Z,95.94
2022-12-23T11:22:58.574Z,95.37
2022-12-23T11:23:58.527Z,95.46
2022-12-23T11:24:58.499Z,95.08
2022-12-23T11:25:58.462Z,95.37
2022-12-23T11:26:58.421Z,94.32
2022-12-23T11:27:58.388Z,94.32
2022-12-23T11:28:58.352Z,94.32
2022-12-23T11:29:58.309Z,93.74
2022-12-23T11:30:58.279Z,93.46
2022-12-23T11:31:58.284Z,93.55
2022-12-23T11:32:58.208Z,93.36
2022-12-23T11:33:58.187Z,93.08
2022-12-23T11:34:58.189Z,92.50
2022-12-23T11:35:58.095Z,92.79
2022-12-23T11:37:03.356Z,92.22
2022-12-23T11:37:58.033Z,91.64
2022-12-23T11:38:57.998Z,92.03
2022-12-23T11:39:57.953Z,91.74
2022-12-23T11:40:57.931Z,92.03
2022-12-23T11:41:57.882Z,91.55
2022-12-23T11:42:57.848Z,91.93
2022-12-23T11:43:57.819Z,92.12
2022-12-23T11:44:57.780Z,91.64
2022-12-23T11:45:57.799Z,91.36
2022-12-23T11:46:57.719Z,91.27
2022-12-23T11:47:57.665Z,90.26
2022-12-23T11:48:57.624Z,90.88
2022-12-23T11:49:57.594Z,90.41
2022-12-23T11:50:57.569Z,90.31
2022-12-23T11:51:57.520Z,90.31
2022-12-23T11:52:57.485Z,90.50
2022-12-23T11:53:57.448Z,90.31
2022-12-23T11:54:57.420Z,90.41
2022-12-23T11:55:57.379Z,90.41
2022-12-23T11:56:57.466Z,90.41
2022-12-23T11:57:57.303Z,90.12
2022-12-23T11:58:57.273Z,89.54
2022-12-23T11:59:57.235Z,89.64
2022-12-23T12:00:57.196Z,89.74
2022-12-23T12:01:57.200Z,89.79
2022-12-23T12:02:57.213Z,89.17
2022-12-23T12:03:57.119Z,89.50
2022-12-23T12:04:57.058Z,89.22
2022-12-23T12:05:57.015Z,89.74
2022-12-23T12:06:57.083Z,89.26
2022-12-23T12:07:56.965Z,88.36
2022-12-23T12:08:56.918Z,89.07
2022-12-23T12:09:56.875Z,88.59
2022-12-23T12:10:56.835Z,88.74
2022-12-23T12:11:56.802Z,88.84
2022-12-23T12:12:56.795Z,89.03
2022-12-23T12:13:56.726Z,89.54
2022-12-23T12:14:56.691Z,89.12
2022-12-23T12:15:56.675Z,89.17
2022-12-23T12:16:56.698Z,89.12
2022-12-23T12:17:56.600Z,88.55
2022-12-23T12:18:56.558Z,88.55
2022-12-23T12:19:56.513Z,88.64
2022-12-23T12:20:56.486Z,88.64
2022-12-23T12:21:56.445Z,88.45
2022-12-23T12:22:56.862Z,88.55
2022-12-23T12:24:17.181Z,88.36
2022-12-23T12:24:56.343Z,88.64
2022-12-23T12:25:56.301Z,88.55
2022-12-23T12:26:56.268Z,88.84
2022-12-23T12:27:56.229Z,88.74
2022-12-23T12:28:56.192Z,89.22
2022-12-23T12:29:56.152Z,88.26
2022-12-23T12:30:56.290Z,88.84
2022-12-23T12:31:56.096Z,88.50
2022-12-23T12:32:56.056Z,88.74
2022-12-23T12:33:56.031Z,88.64
2022-12-23T12:34:55.977Z,88.31
2022-12-23T12:36:00.227Z,88.26
2022-12-23T12:36:55.997Z,87.60
2022-12-23T12:37:55.884Z,88.07
2022-12-23T12:38:55.844Z,88.55
2022-12-23T12:39:55.797Z,88.17
2022-12-23T12:40:55.757Z,87.54
2022-12-23T12:42:00.132Z,87.64
2022-12-23T12:42:55.696Z,87.16
2022-12-23T12:43:55.647Z,86.98
2022-12-23T12:44:55.629Z,87.93
2022-12-23T12:45:55.603Z,87.83
2022-12-23T12:46:55.543Z,87.35
2022-12-23T12:47:59.909Z,87.16
2022-12-23T12:48:55.478Z,87.54
2022-12-23T12:49:55.435Z,87.83
2022-12-23T12:50:55.418Z,87.26
2022-12-23T12:51:55.359Z,87.74
2022-12-23T12:52:55.354Z,87.12